createdAt,value
2019-05-11T00:00:24.516Z,100540.33
2019-05-11T00:02:55.791Z,100533.69
2019-05-11T00:05:27.048Z,100525.94
2019-05-11T00:07:58.272Z,100530.94
2019-05-11T00:10:29.549Z,100525.33
2019-05-11T00:13:00.836Z,100532.96
2019-05-11T00:15:32.107Z,100537.63
2019-05-11T00:18:03.330Z,100540.80
2019-05-11T00:20:34.580Z,100533.38
2019-05-11T00:23:05.862Z,100542.82
2019-05-11T00:25:37.031Z,100538.37
2019-05-11T00:28:08.240Z,100530.25
2019-05-11T00:30:39.499Z,100521.11
2019-05-11T00:33:10.726Z,100517.00
2019-05-11T00:35:41.976Z,100514.78
2019-05-11T00:38:13.171Z,100504.52
2019-05-11T00:40:44.423Z,100502.20
2019-05-11T00:43:15.670Z,100501.00
2019-05-11T00:45:46.909Z,100501.16
2019-05-11T00:48:18.058Z,100500.47
2019-05-11T00:50:49.304Z,100493.01
2019-05-11T00:53:20.411Z,100491.50
2019-05-11T00:55:51.674Z,100493.17
2019-05-11T00:58:22.903Z,100488.55
2019-05-11T01:00:54.151Z,100485.41
2019-05-11T01:03:25.305Z,100477.43
2019-05-11T01:05:56.545Z,100478.30
2019-05-11T01:08:27.830Z,100479.58
2019-05-11T01:10:59.051Z,100476.29
2019-05-11T01:13:30.314Z,100480.38
2019-05-11T01:16:01.558Z,100475.73
2019-05-11T01:18:32.878Z,100467.45
2019-05-11T01:21:04.019Z,100465.49
2019-05-11T01:23:35.094Z,100467.16
2019-05-11T01:26:06.264Z,100460.69
2019-05-11T01:28:37.441Z,100460.03
2019-05-11T01:31:08.654Z,100462.21
2019-05-11T01:33:39.827Z,100463.37
2019-05-11T01:36:11.065Z,100466.72
2019-05-11T01:38:42.358Z,100461.06
2019-05-11T01:41:13.548Z,100460.06
2019-05-11T01:43:44.687Z,100460.91
2019-05-11T01:46:15.918Z,100459.42
2019-05-11T01:48:47.180Z,100462.73
2019-05-11T01:51:18.412Z,100456.08
2019-05-11T01:53:49.622Z,100462.75
2019-05-11T01:56:20.883Z,100464.72
2019-05-11T01:58:52.082Z,100455.23
2019-05-11T02:01:24.202Z,100456.38
2019-05-11T02:03:55.558Z,100461.39
2019-05-11T02:06:26.777Z,100450.30
2019-05-11T02:08:58.020Z,100449.61
2019-05-11T02:11:29.264Z,100450.47
2019-05-11T02:14:00.463Z,100453.63
2019-05-11T02:16:31.647Z,100447.66
2019-05-11T02:19:02.914Z,100453.30
2019-05-11T02:21:34.136Z,100449.85
2019-05-11T02:24:05.382Z,100450.32
2019-05-11T02:26:36.616Z,100454.30
2019-05-11T02:29:07.717Z,100447.48
2019-05-11T02:31:38.874Z,100450.47
2019-05-11T02:34:10.146Z,100440.05
2019-05-11T02:36:41.332Z,100448.50
2019-05-11T02:39:12.549Z,100442.84
2019-05-11T02:41:43.848Z,100442.02
2019-05-11T02:44:15.126Z,100442.86
2019-05-11T02:46:46.392Z,100440.52
2019-05-11T02:49:17.594Z,100445.98
2019-05-11T02:51:49.615Z,100450.01
2019-05-11T02:54:21.683Z,100455.14
2019-05-11T02:56:52.926Z,100455.14
2019-05-11T02:59:24.122Z,100459.63
2019-05-11T03:01:55.244Z,100459.80
2019-05-11T03:04:26.523Z,100462.12
2019-05-11T03:06:57.763Z,100464.78
2019-05-11T03:09:28.980Z,100464.44
2019-05-11T03:12:00.195Z,100455.81
2019-05-11T03:14:31.483Z,100451.48
2019-05-11T03:17:27.659Z,100456.14
2019-05-11T03:19:58.844Z,100455.62
2019-05-11T03:22:30.031Z,100456.48
2019-05-11T03:25:01.250Z,100452.81
2019-05-11T03:27:32.511Z,100451.16
2019-05-11T03:30:03.729Z,100456.66
2019-05-11T03:32:34.971Z,100459.61
2019-05-11T03:35:06.527Z,100465.44
2019-05-11T03:37:37.755Z,100466.06
2019-05-11T03:40:09.605Z,100473.19
2019-05-11T03:42:40.853Z,100469.38
2019-05-11T03:45:12.593Z,100470.68
2019-05-11T03:47:43.829Z,100476.18
2019-05-11T03:50:15.467Z,100475.36
2019-05-11T03:52:46.689Z,100478.66
2019-05-11T03:55:18.465Z,100477.05
2019-05-11T03:57:49.631Z,100475.01
2019-05-11T04:00:21.126Z,100473.70
2019-05-11T04:02:52.458Z,100481.30
2019-05-11T04:05:23.662Z,100489.28
2019-05-11T04:07:54.904Z,100484.27
2019-05-11T04:10:26.121Z,100475.66
2019-05-11T04:12:57.383Z,100468.33
2019-05-11T04:15:28.578Z,100466.02
2019-05-11T04:17:59.728Z,100469.02
2019-05-11T04:20:30.996Z,100474.95
2019-05-11T04:23:02.249Z,100473.81
2019-05-11T04:25:33.502Z,100472.81
2019-05-11T04:28:04.733Z,100473.16
2019-05-11T04:30:35.983Z,100463.71
2019-05-11T04:33:07.283Z,100471.98
2019-05-11T04:35:38.527Z,100472.03
2019-05-11T04:38:09.708Z,100471.72
2019-05-11T04:40:40.966Z,100476.05
2019-05-11T04:43:12.184Z,100479.72
2019-05-11T04:45:43.357Z,100469.06
2019-05-11T04:48:14.512Z,100480.52
2019-05-11T04:50:45.738Z,100478.03
2019-05-11T04:53:16.878Z,100481.03
2019-05-11T04:55:48.126Z,100484.05
2019-05-11T04:58:19.352Z,100476.56
2019-05-11T05:00:50.626Z,100481.03
2019-05-11T05:03:21.856Z,100474.91
2019-05-11T05:05:53.089Z,100479.20
2019-05-11T05:08:26.715Z,100483.72
2019-05-11T05:10:58.589Z,100478.06
2019-05-11T05:13:31.520Z,100477.06
2019-05-11T05:16:02.877Z,100481.56
2019-05-11T05:18:34.066Z,100486.69
2019-05-11T05:21:05.241Z,100487.89
2019-05-11T05:23:36.338Z,100483.06
2019-05-11T05:26:07.495Z,100488.56
2019-05-11T05:28:38.641Z,100490.39
2019-05-11T05:31:09.914Z,100495.36
2019-05-11T05:33:41.180Z,100494.87
2019-05-11T05:36:12.377Z,100498.86
2019-05-11T05:38:43.601Z,100494.39
2019-05-11T05:41:14.866Z,100488.93
2019-05-11T05:43:46.095Z,100502.72
2019-05-11T05:46:17.375Z,100500.20
2019-05-11T05:48:48.599Z,100501.05
2019-05-11T05:51:19.875Z,100499.88
2019-05-11T05:53:51.072Z,100503.54
2019-05-11T05:56:22.325Z,100506.86
2019-05-11T05:58:53.557Z,100504.38
2019-05-11T06:01:24.734Z,100504.22
2019-05-11T06:03:55.971Z,100507.05
2019-05-11T06:06:27.205Z,100514.36
2019-05-11T06:08:58.438Z,100510.02
2019-05-11T06:11:29.666Z,100506.55
2019-05-11T06:14:00.850Z,100510.03
2019-05-11T06:16:32.165Z,100513.05
2019-05-11T06:19:03.419Z,100506.05
2019-05-11T06:21:34.588Z,100513.55
2019-05-11T06:24:08.133Z,100514.36
2019-05-11T06:26:38.767Z,100513.51
2019-05-11T06:29:10.018Z,100515.56
2019-05-11T06:31:41.311Z,100511.33
2019-05-11T06:34:12.511Z,100516.62
2019-05-11T06:36:43.812Z,100519.73
2019-05-11T06:39:15.024Z,100523.97
2019-05-11T06:41:46.299Z,100526.43
2019-05-11T06:44:17.521Z,100530.00
2019-05-11T06:46:48.789Z,100529.62
2019-05-11T06:49:20.128Z,100530.72
2019-05-11T06:51:52.367Z,100535.42
2019-05-11T06:54:23.592Z,100530.23
2019-05-11T06:56:54.869Z,100533.30
2019-05-11T06:59:26.111Z,100532.61
2019-05-11T07:01:57.380Z,100533.70
2019-05-11T07:04:28.533Z,100538.81
2019-05-11T07:06:59.800Z,100540.91
2019-05-11T07:09:31.098Z,100541.97
2019-05-11T07:12:02.503Z,100548.16
2019-05-11T07:14:33.790Z,100543.98
2019-05-11T07:17:05.053Z,100538.22
2019-05-11T07:19:36.286Z,100543.19
2019-05-11T07:22:07.533Z,100535.09
2019-05-11T07:24:38.756Z,100534.70
2019-05-11T07:27:09.993Z,100539.21
2019-05-11T07:29:41.130Z,100539.17
2019-05-11T07:32:22.079Z,100544.98
2019-05-11T07:34:45.358Z,100553.79
2019-05-11T07:37:18.501Z,100560.02
2019-05-11T07:39:49.625Z,100566.34
2019-05-11T07:42:20.925Z,100569.66
2019-05-11T07:44:52.151Z,100581.67
2019-05-11T07:47:23.427Z,100575.31
2019-05-11T07:49:54.677Z,100569.09
2019-05-11T07:52:25.937Z,100572.84
2019-05-11T07:54:58.039Z,100576.47
2019-05-11T07:57:29.452Z,100572.53
2019-05-11T08:00:00.709Z,100573.00
2019-05-11T08:02:32.500Z,100569.20
2019-05-11T08:05:03.868Z,100562.40
2019-05-11T08:07:35.127Z,100571.52
2019-05-11T08:10:08.212Z,100567.94
2019-05-11T08:12:39.643Z,100570.08
2019-05-11T08:15:13.589Z,100575.48
2019-05-11T08:17:44.097Z,100579.30
2019-05-11T08:20:15.645Z,100587.66
2019-05-11T08:22:48.194Z,100591.23
2019-05-11T08:25:19.729Z,100590.72
2019-05-11T08:27:50.956Z,100595.45
2019-05-11T08:30:22.356Z,100587.38
2019-05-11T08:32:53.610Z,100594.87
2019-05-11T08:35:28.532Z,100597.23
2019-05-11T08:37:58.471Z,100601.36
2019-05-11T08:40:29.753Z,100611.14
2019-05-11T08:43:01.013Z,100609.80
2019-05-11T08:45:32.199Z,100613.50
2019-05-11T08:48:03.549Z,100616.34
2019-05-11T08:50:34.827Z,100614.88
2019-05-11T08:53:08.430Z,100613.22
2019-05-11T08:55:39.042Z,100621.45
2019-05-11T08:58:10.335Z,100619.02
2019-05-11T09:00:41.593Z,100622.12
2019-05-11T09:03:12.892Z,100624.63
2019-05-11T09:05:44.170Z,100626.87
2019-05-11T09:08:15.436Z,100636.12
2019-05-11T09:10:48.831Z,100636.93
2019-05-11T09:13:19.561Z,100643.14
2019-05-11T09:15:50.735Z,100649.80
2019-05-11T09:18:22.011Z,100658.58
2019-05-11T09:20:53.274Z,100655.40
2019-05-11T09:23:34.726Z,100660.58
2019-05-11T09:25:58.336Z,100657.39
2019-05-11T09:28:29.969Z,100663.49
2019-05-11T09:31:01.131Z,100668.91
2019-05-11T09:33:32.378Z,100667.36
2019-05-11T09:36:03.641Z,100671.81
2019-05-11T09:38:34.920Z,100674.96
2019-05-11T09:41:08.958Z,100677.50
2019-05-11T09:43:39.086Z,100678.60
2019-05-11T09:46:10.245Z,100690.44
2019-05-11T09:48:41.404Z,100690.28
2019-05-11T09:51:12.543Z,100690.78
2019-05-11T09:53:48.291Z,100699.05
2019-05-11T09:56:19.910Z,100700.50
2019-05-11T09:58:51.141Z,100699.04
2019-05-11T10:01:22.379Z,100701.07
2019-05-11T10:03:53.530Z,100704.56
2019-05-11T10:06:24.676Z,100707.77
2019-05-11T10:08:57.923Z,100703.98
2019-05-11T10:11:28.944Z,100712.41
2019-05-11T10:14:00.077Z,100713.34
2019-05-11T10:16:31.500Z,100715.80
2019-05-11T10:19:02.675Z,100716.73
2019-05-11T10:21:33.949Z,100721.58
2019-05-11T10:24:05.138Z,100718.02
2019-05-11T10:26:38.486Z,100731.61
2019-05-11T10:29:09.241Z,100739.50
2019-05-11T10:31:40.519Z,100740.93
2019-05-11T10:34:11.706Z,100742.27
2019-05-11T10:36:42.916Z,100746.75
2019-05-11T10:39:14.116Z,100752.30
2019-05-11T10:41:47.807Z,100761.38
2019-05-11T10:44:18.887Z,100755.52
2019-05-11T10:46:50.287Z,100753.80
2019-05-11T10:49:21.832Z,100754.30
2019-05-11T10:51:53.088Z,100765.44
2019-05-11T10:54:24.272Z,100769.36
2019-05-11T10:56:57.737Z,100778.38
2019-05-11T10:59:28.538Z,100770.64
2019-05-11T11:01:59.791Z,100778.01
2019-05-11T11:04:30.943Z,100781.66
2019-05-11T11:07:02.109Z,100769.14
2019-05-11T11:09:33.265Z,100778.42
2019-05-11T11:12:04.546Z,100793.59
2019-05-11T11:14:37.717Z,100792.80
2019-05-11T11:17:08.911Z,100787.55
2019-05-11T11:19:40.068Z,100788.30
2019-05-11T11:22:35.061Z,100810.48
2019-05-11T11:24:44.133Z,100797.94
2019-05-11T11:27:15.517Z,100814.03
2019-05-11T11:29:47.581Z,100805.20
2019-05-11T11:32:18.882Z,100820.05
2019-05-11T11:34:50.144Z,100810.33
2019-05-11T11:37:21.355Z,100822.06
2019-05-11T11:39:52.585Z,100826.75
2019-05-11T11:42:23.841Z,100821.32
2019-05-11T11:44:54.999Z,100835.39
2019-05-11T11:47:28.103Z,100838.52
2019-05-11T11:49:59.061Z,100839.95
2019-05-11T11:52:30.270Z,100845.83
2019-05-11T11:55:01.398Z,100847.53
2019-05-11T11:57:32.627Z,100853.96
2019-05-11T12:00:03.916Z,100859.23
2019-05-11T12:02:35.071Z,100860.62
2019-05-11T12:05:08.849Z,100867.33
2019-05-11T12:07:39.851Z,100896.14
2019-05-11T12:10:13.196Z,100881.22
2019-05-11T12:12:44.388Z,100891.78
2019-05-11T12:15:17.782Z,100899.31
2019-05-11T12:17:49.202Z,100898.13
2019-05-11T12:20:20.521Z,100898.15
2019-05-11T12:22:51.762Z,100913.65
2019-05-11T12:25:22.965Z,100906.49
2019-05-11T12:27:54.126Z,100904.84
2019-05-11T12:30:25.532Z,100920.16
2019-05-11T12:32:57.713Z,100922.95
2019-05-11T12:35:29.661Z,100918.91
2019-05-11T12:38:00.915Z,100920.65
2019-05-11T12:40:32.144Z,100930.89
2019-05-11T12:43:03.388Z,100931.44
2019-05-11T12:45:34.611Z,100923.92
2019-05-11T12:48:05.967Z,100931.10
2019-05-11T12:50:37.888Z,100937.41
2019-05-11T12:53:09.342Z,100936.75
2019-05-11T12:55:40.562Z,100947.27
2019-05-11T12:58:11.823Z,100952.66
2019-05-11T13:00:43.081Z,100959.51
2019-05-11T13:03:14.334Z,100958.33
2019-05-11T13:05:45.577Z,100964.02
2019-05-11T13:08:18.468Z,100962.09
2019-05-11T13:10:49.624Z,100955.69
2019-05-11T13:13:20.953Z,100963.39
2019-05-11T13:15:52.113Z,100971.83
2019-05-11T13:18:23.388Z,100971.73
2019-05-11T13:20:54.461Z,100975.17
2019-05-11T13:23:27.642Z,100985.37
2019-05-11T13:25:58.661Z,100990.34
2019-05-11T13:28:29.940Z,100992.45
2019-05-11T13:31:01.165Z,100994.06
2019-05-11T13:33:32.415Z,100996.91
2019-05-11T13:36:03.662Z,100991.73
2019-05-11T13:38:34.917Z,101001.31
2019-05-11T13:41:07.960Z,101007.05
2019-05-11T13:43:39.462Z,101005.36
2019-05-11T13:46:10.997Z,101017.75
2019-05-11T13:48:42.394Z,101016.77
2019-05-11T13:51:13.635Z,101009.30
2019-05-11T13:53:44.793Z,101021.19
2019-05-11T13:56:17.643Z,101019.17
2019-05-11T13:58:49.032Z,101012.92
2019-05-11T14:01:20.185Z,101028.12
2019-05-11T14:03:51.454Z,101025.18
2019-05-11T14:06:23.157Z,101033.27
2019-05-11T14:08:54.325Z,101036.28
2019-05-11T14:11:25.453Z,101041.05
2019-05-11T14:13:58.465Z,101049.98
2019-05-11T14:16:29.611Z,101047.77
2019-05-11T14:19:00.862Z,101058.28
2019-05-11T14:21:32.262Z,101060.98
2019-05-11T14:24:03.461Z,101067.52
2019-05-11T14:26:34.603Z,101067.86
2019-05-11T14:29:05.772Z,101073.98
2019-05-11T14:31:38.832Z,101085.48
2019-05-11T14:34:10.320Z,101088.53
2019-05-11T14:36:41.448Z,101091.81
2019-05-11T14:39:12.697Z,101087.53
2019-05-11T14:41:43.918Z,101090.34
2019-05-11T14:44:15.191Z,101095.56
2019-05-11T14:46:47.792Z,101104.09
2019-05-11T14:49:19.231Z,101093.45
2019-05-11T14:51:50.477Z,101109.56
2019-05-11T14:54:21.944Z,101113.61
2019-05-11T14:56:53.239Z,101119.09
2019-05-11T14:59:58.465Z,101123.52
2019-05-11T15:02:49.072Z,101121.97
2019-05-11T15:05:21.903Z,101119.69
2019-05-11T15:07:53.308Z,101134.93
2019-05-11T15:10:24.696Z,101140.52
2019-05-11T15:12:55.984Z,101146.45
2019-05-11T15:15:27.918Z,101147.70
2019-05-11T15:17:59.821Z,101144.22
2019-05-11T15:20:31.075Z,101153.17
2019-05-11T15:23:02.287Z,101163.98
2019-05-11T15:25:33.444Z,101165.28
2019-05-11T15:28:04.704Z,101172.42
2019-05-11T15:30:37.864Z,101179.25
2019-05-11T15:33:08.867Z,101167.12
2019-05-11T15:35:40.097Z,101172.98
2019-05-11T15:38:11.436Z,101181.91
2019-05-11T15:40:42.645Z,101183.31
2019-05-11T15:43:13.853Z,101184.70
2019-05-11T15:45:45.193Z,101193.30
2019-05-11T15:48:18.483Z,101191.78
2019-05-11T15:50:49.334Z,101201.00
2019-05-11T15:53:20.629Z,101201.74
2019-05-11T15:55:51.859Z,101207.25
2019-05-11T15:58:23.004Z,101213.36
2019-05-11T16:00:54.236Z,101213.81
2019-05-11T16:03:25.586Z,101216.00
2019-05-11T16:05:58.266Z,101217.91
2019-05-11T16:08:29.608Z,101232.12
2019-05-11T16:11:00.883Z,101228.16
2019-05-11T16:13:32.213Z,101234.77
2019-05-11T16:16:03.482Z,101238.61
2019-05-11T16:18:34.790Z,101239.39
2019-05-11T16:21:07.641Z,101252.77
2019-05-11T16:23:39.085Z,101253.45
2019-05-11T16:26:10.218Z,101249.78
2019-05-11T16:28:41.487Z,101256.77
2019-05-11T16:31:12.739Z,101270.48
2019-05-11T16:33:44.075Z,101267.75
2019-05-11T16:36:17.882Z,101279.34
2019-05-11T16:38:48.425Z,101285.26
2019-05-11T16:41:21.073Z,101281.73
2019-05-11T16:43:52.542Z,101282.50
2019-05-11T16:46:23.825Z,101293.10
2019-05-11T16:48:55.035Z,101296.28
2019-05-11T16:51:28.247Z,101295.70
2019-05-11T16:53:59.143Z,101303.09
2019-05-11T16:56:30.385Z,101306.21
2019-05-11T16:59:01.617Z,101304.64
2019-05-11T17:01:32.885Z,101310.83
2019-05-11T17:04:04.540Z,101298.97
2019-05-11T17:06:38.316Z,101312.57
2019-05-11T17:09:09.129Z,101323.27
2019-05-11T17:11:42.923Z,101329.69
2019-05-11T17:14:14.245Z,101329.11
2019-05-11T17:16:47.630Z,101336.58
2019-05-11T17:19:19.910Z,101344.41
2019-05-11T17:21:51.158Z,101353.31
2019-05-11T17:24:22.326Z,101360.42
2019-05-11T17:26:53.605Z,101367.97
2019-05-11T17:29:24.889Z,101368.39
2019-05-11T17:31:57.962Z,101379.61
2019-05-11T17:34:29.085Z,101375.12
2019-05-11T17:37:00.433Z,101382.06
2019-05-11T17:39:31.727Z,101384.58
2019-05-11T17:42:03.049Z,101393.76
2019-05-11T17:44:37.859Z,101400.22
2019-05-11T17:47:09.334Z,101411.83
2019-05-11T17:49:56.422Z,101416.17
2019-05-11T17:52:18.933Z,101419.72
2019-05-11T17:54:55.063Z,101422.80
2019-05-11T17:57:27.589Z,101428.02
2019-05-11T17:59:58.308Z,101436.58
2019-05-11T18:02:29.633Z,101439.24
2019-05-11T18:05:00.822Z,101439.77
2019-05-11T18:07:33.057Z,101447.13
2019-05-11T18:10:04.477Z,101453.86
2019-05-11T18:12:35.797Z,101466.10
2019-05-11T18:15:09.209Z,101465.94
2019-05-11T18:17:48.156Z,101470.60
2019-05-11T18:20:21.951Z,101475.81
2019-05-11T18:22:52.993Z,101481.64
2019-05-11T18:25:24.168Z,101480.15
2019-05-11T18:27:55.447Z,101496.86
2019-05-11T18:30:29.100Z,101507.52
2019-05-11T18:32:59.683Z,101517.34
2019-05-11T18:35:30.845Z,101523.83
2019-05-11T18:38:02.150Z,101516.77
2019-05-11T18:40:33.408Z,101531.27
2019-05-11T18:43:04.727Z,101535.05
2019-05-11T18:45:38.198Z,101543.52
2019-05-11T18:48:09.105Z,101550.50
2019-05-11T18:50:40.361Z,101559.95
2019-05-11T18:53:11.623Z,101570.91
2019-05-11T18:55:42.890Z,101571.02
2019-05-11T18:58:14.174Z,101579.51
2019-05-11T19:00:45.432Z,101589.97
2019-05-11T19:03:19.025Z,101593.56
2019-05-11T19:05:49.622Z,101599.63
2019-05-11T19:08:20.907Z,101605.26
2019-05-11T19:10:52.188Z,101614.79
2019-05-11T19:13:23.479Z,101624.69
2019-05-11T19:15:54.693Z,101627.65
2019-05-11T19:18:27.996Z,101625.89
2019-05-11T19:20:58.889Z,101631.89
2019-05-11T19:23:30.156Z,101638.15
2019-05-11T19:26:01.444Z,101642.12
2019-05-11T19:28:32.696Z,101647.02
2019-05-11T19:31:03.915Z,101656.74
2019-05-11T19:33:35.219Z,101666.80
2019-05-11T19:36:07.896Z,101666.82
2019-05-11T19:38:39.249Z,101673.14
2019-05-11T19:41:10.540Z,101677.93
2019-05-11T19:43:41.802Z,101682.25
2019-05-11T19:46:13.103Z,101697.31
2019-05-11T19:48:44.338Z,101707.42
2019-05-11T19:51:15.625Z,101708.99
2019-05-11T19:53:48.408Z,101713.00
2019-05-11T19:56:19.772Z,101725.05
2019-05-11T19:58:51.095Z,101731.16
2019-05-11T20:01:22.417Z,101730.22
2019-05-11T20:03:53.780Z,101747.32
2019-05-11T20:06:25.035Z,101757.20
2019-05-11T20:08:58.081Z,101751.72
2019-05-11T20:11:29.535Z,101764.82
2019-05-11T20:14:00.782Z,101777.17
2019-05-11T20:16:32.045Z,101774.14
2019-05-11T20:19:03.329Z,101781.04
2019-05-11T20:21:34.601Z,101783.61
2019-05-11T20:24:08.554Z,101794.23
2019-05-11T20:26:41.536Z,101793.03
2019-05-11T20:29:12.793Z,101803.52
2019-05-11T20:31:44.182Z,101809.34
2019-05-11T20:34:15.426Z,101814.85
2019-05-11T20:36:48.976Z,101816.53
2019-05-11T20:39:20.128Z,101828.48
2019-05-11T20:41:51.389Z,101835.16
2019-05-11T20:44:22.736Z,101839.03
2019-05-11T20:46:54.047Z,101846.02
2019-05-11T20:49:25.333Z,101849.55
2019-05-11T20:51:59.739Z,101858.39
2019-05-11T20:54:30.935Z,101858.46
2019-05-11T20:57:02.133Z,101866.98
2019-05-11T20:59:33.381Z,101868.83
2019-05-11T21:02:04.814Z,101863.87
2019-05-11T21:04:38.470Z,101876.34
2019-05-11T21:07:08.943Z,101882.45
2019-05-11T21:09:40.177Z,101881.48
2019-05-11T21:12:13.553Z,101884.37
2019-05-11T21:14:48.503Z,101890.04
2019-05-11T21:17:19.854Z,101889.95
2019-05-11T21:19:51.086Z,101893.79
2019-05-11T21:22:22.345Z,101900.19
2019-05-11T21:24:53.497Z,101907.45
2019-05-11T21:27:24.713Z,101909.14
2019-05-11T21:29:58.284Z,101912.89
2019-05-11T21:32:28.903Z,101916.05
2019-05-11T21:35:01.129Z,101926.08
2019-05-11T21:37:32.367Z,101923.30
2019-05-11T21:40:03.749Z,101925.25
2019-05-11T21:42:34.972Z,101931.05
2019-05-11T21:45:09.127Z,101932.76
2019-05-11T21:47:39.872Z,101946.03
2019-05-11T21:50:14.771Z,101948.06
2019-05-11T21:52:48.276Z,101962.76
2019-05-11T21:55:18.929Z,101961.06
2019-05-11T21:57:50.183Z,101966.84
2019-05-11T22:00:27.982Z,101962.86
2019-05-11T22:02:58.674Z,101965.04
2019-05-11T22:05:29.873Z,101966.47
2019-05-11T22:08:01.041Z,101974.17
2019-05-11T22:10:32.350Z,101971.05
2019-05-11T22:13:03.685Z,101981.02
2019-05-11T22:15:34.901Z,101980.64
2019-05-11T22:18:08.032Z,101985.20
2019-05-11T22:20:40.956Z,101988.32
2019-05-11T22:23:11.888Z,101986.75
2019-05-11T22:25:43.186Z,101996.52
2019-05-11T22:28:14.348Z,101992.27
2019-05-11T22:30:45.523Z,102005.88
2019-05-11T22:33:17.755Z,102004.41
2019-05-11T22:35:49.033Z,102011.04
2019-05-11T22:38:20.264Z,102011.90
2019-05-11T22:40:51.515Z,102023.84
2019-05-11T22:43:22.692Z,102023.34
2019-05-11T22:45:53.937Z,102023.39
2019-05-11T22:48:25.135Z,102030.59
2019-05-11T22:50:58.501Z,102036.89
2019-05-11T22:53:43.623Z,102036.59
2019-05-11T22:56:02.129Z,102036.78
2019-05-11T22:58:33.391Z,102048.08
2019-05-11T23:01:04.633Z,102048.78
2019-05-11T23:03:38.188Z,102054.41
2019-05-11T23:06:08.812Z,102057.50
2019-05-11T23:08:40.050Z,102058.69
2019-05-11T23:11:11.403Z,102060.77
2019-05-11T23:13:42.614Z,102065.91
2019-05-11T23:16:13.901Z,102065.55
2019-05-11T23:18:45.112Z,102064.37
2019-05-11T23:21:16.376Z,102072.25
2019-05-11T23:23:47.896Z,102070.03
2019-05-11T23:26:19.188Z,102067.83
2019-05-11T23:28:50.455Z,102077.91
2019-05-11T23:31:21.700Z,102079.88
2019-05-11T23:33:52.905Z,102084.25
2019-05-11T23:36:24.119Z,102082.66
2019-05-11T23:38:55.379Z,102089.31
2019-05-11T23:41:28.785Z,102102.70
2019-05-11T23:43:59.501Z,102107.92
2019-05-11T23:46:30.767Z,102111.06
2019-05-11T23:49:02.026Z,102113.74
2019-05-11T23:51:33.237Z,102114.60
2019-05-11T23:54:04.520Z,102127.31
2019-05-11T23:56:35.763Z,102122.19
2019-05-11T23:59:08.290Z,102133.50
